Time;durP1;ratioP1;P1;durP2;ratioP2;P2;SDS_P1;SDS_P2;PMS_P1;PMS_P2;Temp;Humidity;BMP_temperature;BMP_pressure;BME280_temperature;BME280_humidity;BME280_pressure;Samples;Min_cycle;Max_cycle;Signal;HPM_P1;HPM_P2
2023/10/22 00:01:32;;;;;;;7.17;5.03;;;;;;;20.01;74.71;99397.91;5092166;28;20199;-64
2023/10/22 00:03:59;;;;;;;11.00;5.33;;;;;;;20.06;74.59;99406.81;5091564;28;20615;-63
2023/10/22 00:06:26;;;;;;;12.43;6.03;;;;;;;20.11;74.44;99393.41;5092061;28;20191;-64
2023/10/22 00:08:52;;;;;;;14.80;6.23;;;;;;;20.17;74.26;99391.53;5091594;28;20202;-65
2023/10/22 00:11:19;;;;;;;14.10;5.67;;;;;;;20.18;74.68;99398.56;5091938;28;20292;-64
2023/10/22 00:13:47;;;;;;;13.23;5.90;;;;;;;20.17;74.75;99423.91;5091933;28;20240;-64
2023/10/22 00:16:14;;;;;;;22.73;6.13;;;;;;;20.04;75.37;99425.16;5091933;28;20573;-63
2023/10/22 00:18:40;;;;;;;10.27;4.93;;;;;;;20.10;75.03;99420.63;5091820;28;20187;-63
2023/10/22 00:21:08;;;;;;;12.50;6.00;;;;;;;20.12;75.31;99405.00;5091531;28;20255;-64
2023/10/22 00:23:36;;;;;;;10.50;4.57;;;;;;;20.21;75.05;99398.03;5091293;28;20738;-64
2023/10/22 00:26:03;;;;;;;11.10;5.60;;;;;;;20.30;74.88;99407.28;5091463;28;20242;-64
2023/10/22 00:28:29;;;;;;;7.40;5.23;;;;;;;20.33;74.65;99396.78;5091489;28;20681;-64
2023/10/22 00:30:57;;;;;;;13.87;5.50;;;;;;;20.24;74.75;99397.53;5091692;28;20223;-64
2023/10/22 00:33:24;;;;;;;10.00;5.63;;;;;;;20.21;74.81;99404.25;5091676;28;20191;-63
2023/10/22 00:35:58;;;;;;;8.50;5.53;;;;;;;20.25;74.63;99393.75;5091400;28;20267;-63
2023/10/22 00:38:25;;;;;;;6.27;4.70;;;;;;;20.27;74.50;99394.31;5091764;28;20268;-63
2023/10/22 00:40:52;;;;;;;17.73;5.73;;;;;;;20.28;74.47;99393.22;5091736;28;20199;-64
2023/10/22 00:43:19;;;;;;;9.57;5.00;;;;;;;19.97;75.52;99392.19;5091678;28;20256;-63
2023/10/22 00:45:47;;;;;;;6.63;5.07;;;;;;;19.99;75.56;99389.22;5091663;28;20618;-63
2023/10/22 00:48:17;;;;;;;7.83;5.33;;;;;;;19.88;76.00;99382.13;5091585;28;20256;-64
2023/10/22 00:50:44;;;;;;;13.07;5.50;;;;;;;19.89;75.95;99383.78;5091628;28;20245;-64
2023/10/22 00:53:15;;;;;;;8.47;5.30;;;;;;;19.87;76.09;99396.69;5091533;28;20260;-64
2023/10/22 00:55:45;;;;;;;13.10;4.93;;;;;;;19.95;76.23;99393.50;5091649;28;20248;-64
2023/10/22 00:58:12;;;;;;;11.77;5.53;;;;;;;19.96;76.22;99395.13;5091419;28;20195;-64
2023/10/22 01:00:39;;;;;;;14.23;5.50;;;;;;;20.01;76.06;99400.59;5091476;28;20246;-64
2023/10/22 01:03:06;;;;;;;11.93;5.33;;;;;;;19.94;76.20;99391.91;5091405;28;20625;-64
2023/10/22 01:05:36;;;;;;;9.17;5.47;;;;;;;20.01;76.13;99398.69;5091185;28;20731;-64
2023/10/22 01:08:03;;;;;;;10.10;4.97;;;;;;;20.00;75.79;99393.53;5091178;28;20215;-64
2023/10/22 01:10:30;;;;;;;9.20;5.63;;;;;;;20.08;75.81;99393.06;5091479;28;20279;-63
2023/10/22 01:12:57;;;;;;;10.97;4.70;;;;;;;20.08;75.49;99393.88;5090930;28;20658;-63
2023/10/22 01:15:23;;;;;;;13.00;5.33;;;;;;;20.08;75.73;99387.66;5091253;28;20646;-63
2023/10/22 01:17:50;;;;;;;12.50;5.43;;;;;;;19.91;76.00;99387.03;5091312;28;20191;-64
2023/10/22 01:20:17;;;;;;;12.57;5.77;;;;;;;19.99;75.92;99390.06;5091193;28;20199;-63
2023/10/22 01:22:45;;;;;;;9.47;5.30;;;;;;;20.06;75.66;99379.03;5091032;28;20253;-64
2023/10/22 01:25:13;;;;;;;8.97;5.47;;;;;;;20.11;75.52;99381.78;5090872;28;20236;-63
2023/10/22 01:27:40;;;;;;;7.10;5.17;;;;;;;20.15;75.03;99388.31;5090797;28;20231;-64
2023/10/22 01:30:07;;;;;;;8.77;5.77;;;;;;;20.22;75.30;99394.28;5091141;28;20223;-64
2023/10/22 01:32:34;;;;;;;10.50;5.80;;;;;;;20.28;75.08;99409.41;5090837;28;20751;-64
2023/10/22 01:35:01;;;;;;;12.60;6.07;;;;;;;20.32;74.75;99413.22;5093643;28;20252;-63
2023/10/22 01:37:28;;;;;;;11.83;6.47;;;;;;;20.24;74.77;99405.59;5094836;28;20195;-64
2023/10/22 01:39:57;;;;;;;12.87;5.47;;;;;;;20.21;75.38;99398.03;5094337;28;20199;-64
2023/10/22 01:42:25;;;;;;;12.17;5.20;;;;;;;20.22;75.55;99402.38;5094348;28;20266;-63
2023/10/22 01:44:52;;;;;;;13.77;6.00;;;;;;;20.25;75.74;99405.34;5094319;28;20191;-65
2023/10/22 01:47:19;;;;;;;16.73;6.47;;;;;;;20.28;75.46;99393.22;5094406;28;20681;-64
2023/10/22 01:49:46;;;;;;;8.53;5.50;;;;;;;20.30;74.95;99383.00;5094440;28;20191;-64
2023/10/22 01:52:13;;;;;;;9.03;4.77;;;;;;;20.28;75.15;99377.88;5094481;28;20268;-63
2023/10/22 01:54:41;;;;;;;14.13;5.87;;;;;;;20.24;74.91;99386.72;5094379;28;20253;-64
2023/10/22 01:57:08;;;;;;;9.73;5.30;;;;;;;20.19;75.29;99379.44;5094100;28;20195;-64
2023/10/22 01:59:37;;;;;;;12.10;6.03;;;;;;;20.20;74.75;99378.34;5094401;28;20201;-64
2023/10/22 02:02:04;;;;;;;10.00;5.43;;;;;;;20.25;75.34;99383.78;5094408;28;20199;-64
2023/10/22 02:04:31;;;;;;;8.73;6.00;;;;;;;20.27;75.12;99380.81;5093955;28;20260;-64
2023/10/22 02:06:58;;;;;;;12.50;5.80;;;;;;;20.12;75.19;99376.16;5094277;28;20247;-64
2023/10/22 02:09:25;;;;;;;9.00;5.30;;;;;;;20.13;75.35;99363.44;5094260;28;20199;-63
2023/10/22 02:11:53;;;;;;;8.33;5.67;;;;;;;20.09;75.35;99346.16;5094108;28;20310;-66
2023/10/22 02:14:20;;;;;;;6.57;5.47;;;;;;;20.05;75.62;99361.25;5094159;28;20249;-64
2023/10/22 02:16:48;;;;;;;14.30;5.93;;;;;;;20.04;75.82;99370.38;5094110;28;20195;-64
2023/10/22 02:19:15;;;;;;;13.70;6.10;;;;;;;20.03;75.48;99384.94;5094015;28;20252;-63
2023/10/22 02:21:42;;;;;;;20.67;5.93;;;;;;;20.02;75.86;99404.91;5093958;28;20191;-64
2023/10/22 02:24:09;;;;;;;7.43;4.83;;;;;;;20.06;75.63;99406.00;5093561;28;20191;-64
2023/10/22 02:26:35;;;;;;;10.07;6.43;;;;;;;20.03;75.81;99414.59;5093386;28;20223;-64
2023/10/22 02:29:02;;;;;;;10.60;5.80;;;;;;;20.05;76.31;99415.19;5093501;28;20620;-64
2023/10/22 02:31:29;;;;;;;16.23;6.33;;;;;;;20.04;76.35;99424.31;5093616;28;20218;-64
2023/10/22 02:34:03;;;;;;;9.80;5.57;;;;;;;20.01;76.36;99419.47;5093488;28;20282;-65
2023/10/22 02:36:30;;;;;;;10.03;5.33;;;;;;;20.00;76.62;99415.94;5093602;28;20207;-65
2023/10/22 02:38:57;;;;;;;12.87;5.37;;;;;;;20.04;76.05;99403.56;5093637;28;20187;-64
2023/10/22 02:41:23;;;;;;;9.70;5.67;;;;;;;20.08;76.16;99393.06;5093633;28;20238;-63
2023/10/22 02:43:50;;;;;;;7.47;5.70;;;;;;;20.11;76.04;99395.28;5093454;28;20577;-63
2023/10/22 02:46:17;;;;;;;10.10;6.10;;;;;;;20.12;76.15;99405.00;5093261;28;20256;-63
2023/10/22 02:48:43;;;;;;;8.17;5.33;;;;;;;20.11;75.62;99393.41;5093158;28;20666;-64
2023/10/22 02:51:11;;;;;;;9.43;5.90;;;;;;;20.18;75.82;99387.78;5093219;28;20280;-64
2023/10/22 02:53:38;;;;;;;8.57;5.90;;;;;;;20.13;75.55;99393.13;5093046;28;20196;-64
2023/10/22 02:56:07;;;;;;;11.97;5.77;;;;;;;20.17;75.88;99413.09;5092923;28;20278;-64
2023/10/22 02:58:34;;;;;;;12.83;5.73;;;;;;;20.17;75.76;99403.16;5093554;28;20191;-64
2023/10/22 03:01:04;;;;;;;7.93;5.83;;;;;;;20.16;75.65;99398.81;5093108;28;20264;-64
2023/10/22 03:03:31;;;;;;;14.60;6.33;;;;;;;20.18;75.51;99420.16;5093011;28;20180;-64
2023/10/22 03:05:58;;;;;;;13.87;6.10;;;;;;;19.97;76.71;99396.78;5093083;28;20225;-64
2023/10/22 03:08:27;;;;;;;13.43;6.63;;;;;;;19.99;76.86;99416.19;5093084;28;20195;-64
2023/10/22 03:10:53;;;;;;;6.53;5.77;;;;;;;19.91;76.85;99414.81;5092823;28;20223;-65
2023/10/22 03:13:20;;;;;;;11.37;6.40;;;;;;;19.82;77.44;99393.97;5092707;28;20225;-64
2023/10/22 03:15:47;;;;;;;13.60;5.90;;;;;;;19.79;77.43;99410.66;5092807;28;20199;-64
2023/10/22 03:18:13;;;;;;;14.80;6.73;;;;;;;19.85;77.10;99415.03;5092889;28;20198;-64
2023/10/22 03:20:41;;;;;;;13.03;6.10;;;;;;;19.87;77.49;99402.91;5092748;28;20198;-63
2023/10/22 03:23:08;;;;;;;14.50;6.50;;;;;;;19.90;77.05;99404.28;5092455;28;20572;-63
2023/10/22 03:25:37;;;;;;;11.47;5.80;;;;;;;19.89;77.02;99405.34;5092402;28;20203;-64
2023/10/22 03:28:04;;;;;;;13.23;6.87;;;;;;;19.79;77.78;99413.34;5092505;28;20198;-64
2023/10/22 03:30:31;;;;;;;10.03;6.73;;;;;;;19.20;80.22;99384.75;5092086;28;20223;-64
2023/10/22 03:32:57;;;;;;;14.40;6.27;;;;;;;19.28;79.95;99387.03;5092683;28;20255;-65
2023/10/22 03:35:24;;;;;;;10.87;6.40;;;;;;;19.44;79.42;99396.88;5092152;28;20199;-63
2023/10/22 03:37:51;;;;;;;9.43;6.17;;;;;;;19.51;79.17;99402.84;5091877;28;20731;-63
2023/10/22 03:40:17;;;;;;;8.87;6.80;;;;;;;19.55;79.40;99394.00;5092456;28;20188;-63
2023/10/22 03:42:47;;;;;;;11.47;6.80;;;;;;;19.58;79.48;99384.59;5091919;28;20290;-63
2023/10/22 03:45:14;;;;;;;11.33;6.47;;;;;;;19.60;79.30;99404.03;5092292;28;20237;-64
2023/10/22 03:47:41;;;;;;;11.83;6.57;;;;;;;19.63;79.46;99406.19;5092082;28;20548;-64
2023/10/22 03:50:08;;;;;;;8.33;6.67;;;;;;;19.57;79.45;99401.84;5092218;28;20194;-63
2023/10/22 03:52:35;;;;;;;15.77;6.90;;;;;;;19.52;79.23;99399.09;5092245;28;20278;-63
2023/10/22 03:55:02;;;;;;;11.50;7.40;;;;;;;19.18;81.05;99397.63;5092085;28;20195;-64
2023/10/22 03:57:28;;;;;;;15.60;7.83;;;;;;;19.19;80.87;99415.44;5091440;28;20221;-65
2023/10/22 03:59:56;;;;;;;11.83;7.07;;;;;;;19.28;80.69;99398.59;5092155;28;20196;-66
2023/10/22 04:02:23;;;;;;;12.73;7.47;;;;;;;19.37;80.56;99397.09;5091802;28;20260;-63
2023/10/22 04:04:50;;;;;;;13.13;7.57;;;;;;;19.44;80.14;99394.19;5091780;28;20571;-64
2023/10/22 04:07:16;;;;;;;12.23;7.07;;;;;;;19.48;80.08;99395.28;5091978;28;20247;-64
2023/10/22 04:09:43;;;;;;;10.70;7.30;;;;;;;19.49;80.16;99394.22;5091608;28;20199;-64
2023/10/22 04:12:10;;;;;;;13.00;7.23;;;;;;;19.28;80.47;99393.19;5091425;28;20942;-64
2023/10/22 04:14:37;;;;;;;14.13;7.30;;;;;;;19.34;80.72;99412.94;5091960;28;20297;-64
2023/10/22 04:17:05;;;;;;;8.77;7.30;;;;;;;19.36;81.06;99411.59;5091489;28;20194;-64
2023/10/22 04:19:31;;;;;;;19.27;7.67;;;;;;;19.36;80.70;99400.03;5091564;28;20268;-65
2023/10/22 04:21:58;;;;;;;13.13;7.17;;;;;;;19.29;81.16;99391.34;5091426;28;20247;-65
2023/10/22 04:24:25;;;;;;;12.33;7.37;;;;;;;19.31;80.94;99381.09;5091876;28;20202;-64
2023/10/22 04:26:51;;;;;;;15.60;7.47;;;;;;;19.32;80.67;99361.19;5091738;28;20231;-64
2023/10/22 04:29:18;;;;;;;15.73;6.70;;;;;;;19.26;80.93;99357.66;5091981;28;20194;-64
2023/10/22 04:31:45;;;;;;;10.30;6.67;;;;;;;19.23;80.70;99362.69;5091277;28;20226;-63
2023/10/22 04:34:13;;;;;;;13.73;8.33;;;;;;;19.29;80.77;99361.69;5091746;28;20354;-64
2023/10/22 04:36:40;;;;;;;13.30;7.27;;;;;;;19.33;80.47;99357.44;5091347;28;20254;-64
2023/10/22 04:39:06;;;;;;;13.47;7.00;;;;;;;19.26;80.12;99356.81;5091864;28;20493;-63
2023/10/22 04:41:33;;;;;;;10.33;7.10;;;;;;;19.26;80.62;99372.97;5091777;28;20195;-64
2023/10/22 04:44:00;;;;;;;15.00;7.00;;;;;;;19.25;80.31;99390.22;5091432;28;20658;-64
2023/10/22 04:46:28;;;;;;;9.40;6.67;;;;;;;19.30;80.08;99385.69;5091216;28;20236;-65
2023/10/22 04:48:54;;;;;;;12.73;7.10;;;;;;;19.36;80.01;99386.56;5091309;28;20891;-64
2023/10/22 04:51:24;;;;;;;10.73;6.73;;;;;;;19.39;80.02;99397.63;5090866;28;20258;-64
2023/10/22 04:53:50;;;;;;;13.77;7.83;;;;;;;19.44;79.63;99396.88;5089976;28;20204;-64
2023/10/22 04:56:17;;;;;;;9.50;7.30;;;;;;;19.37;79.71;99397.09;5089773;28;20271;-65
2023/10/22 04:58:44;;;;;;;10.70;7.17;;;;;;;19.40;79.76;99412.72;5090264;28;20613;-64
2023/10/22 05:01:10;;;;;;;11.03;7.00;;;;;;;19.45;79.30;99422.75;5088838;28;20199;-67
2023/10/22 05:03:37;;;;;;;8.60;6.00;;;;;;;19.52;79.89;99415.28;5089794;28;20203;-68
2023/10/22 05:06:06;;;;;;;8.90;5.60;;;;;;;19.67;79.03;99391.13;5090190;28;20622;-69
2023/10/22 05:08:35;;;;;;;13.77;7.10;;;;;;;20.02;77.32;99397.59;5090082;28;20274;-70
2023/10/22 05:11:05;;;;;;;7.40;6.47;;;;;;;20.18;76.96;99410.16;5091995;28;20244;-69
2023/10/22 05:13:32;;;;;;;8.40;6.10;;;;;;;20.38;75.85;99409.50;5093950;28;20643;-75
2023/10/22 05:15:59;;;;;;;13.20;6.13;;;;;;;20.58;74.55;99416.88;5094449;28;20187;-77
2023/10/22 05:18:26;;;;;;;12.97;6.63;;;;;;;20.73;73.32;99423.16;5094130;28;20249;-69
2023/10/22 05:20:53;;;;;;;7.63;5.93;;;;;;;20.79;73.61;99437.50;5094557;28;20187;-68
2023/10/22 05:23:20;;;;;;;8.83;6.10;;;;;;;20.71;72.97;99457.72;5094292;28;20195;-69
2023/10/22 05:25:48;;;;;;;8.17;6.03;;;;;;;20.85;73.55;99474.22;5094513;28;20195;-69
2023/10/22 05:28:15;;;;;;;7.97;7.13;;;;;;;20.93;72.16;99474.59;5094142;28;20175;-68
2023/10/22 05:30:41;;;;;;;13.93;6.97;;;;;;;21.04;72.07;99484.38;5094849;28;20198;-71
2023/10/22 05:33:08;;;;;;;12.20;6.60;;;;;;;21.28;71.51;99496.34;5094406;28;20219;-74
2023/10/22 05:35:36;;;;;;;9.87;6.60;;;;;;;21.36;70.89;99490.41;5094567;28;20575;-73
2023/10/22 05:38:03;;;;;;;13.00;6.93;;;;;;;21.48;70.80;99495.59;5093101;28;20940;-73
2023/10/22 05:40:35;;;;;;;20.63;6.23;;;;;;;21.53;70.60;99526.16;5093548;28;20256;-73
2023/10/22 05:43:04;;;;;;;14.73;6.50;;;;;;;21.70;69.43;99520.50;5094660;28;20187;-77
2023/10/22 05:45:30;;;;;;;12.37;7.13;;;;;;;21.67;69.03;99513.75;5094433;28;20223;-70
2023/10/22 05:47:57;;;;;;;11.77;7.00;;;;;;;21.33;70.23;99504.47;5094306;28;20191;-70
2023/10/22 05:50:25;;;;;;;9.30;6.50;;;;;;;21.16;71.49;99511.16;5093774;28;20191;-70
2023/10/22 05:52:52;;;;;;;9.53;6.60;;;;;;;21.16;71.99;99520.09;5089620;28;20276;-70
2023/10/22 05:55:19;;;;;;;15.97;7.23;;;;;;;21.22;71.39;99518.19;5090927;28;20236;-69
2023/10/22 05:57:46;;;;;;;10.93;8.33;;;;;;;21.16;71.52;99508.44;5093613;28;20191;-69
2023/10/22 06:00:15;;;;;;;11.20;7.60;;;;;;;20.90;73.17;99503.97;5091967;28;20183;-71
2023/10/22 06:02:43;;;;;;;16.30;9.53;;;;;;;20.86;71.22;99502.88;5092861;28;20690;-72
2023/10/22 06:05:12;;;;;;;21.87;9.93;;;;;;;20.77;71.48;99491.75;5092340;28;20187;-70
2023/10/22 06:07:38;;;;;;;14.57;9.60;;;;;;;20.01;73.94;99476.09;5092461;28;20199;-71
2023/10/22 06:10:06;;;;;;;8.67;7.63;;;;;;;20.17;74.78;99475.97;5092823;28;20199;-70
2023/10/22 06:12:33;;;;;;;19.40;9.90;;;;;;;20.50;73.55;99488.38;5092603;28;20219;-71
2023/10/22 06:15:03;;;;;;;20.57;10.00;;;;;;;20.55;72.61;99485.69;5092745;28;20593;-71
2023/10/22 06:17:31;;;;;;;11.87;8.70;;;;;;;20.48;72.26;99487.78;5092543;28;20179;-71
2023/10/22 06:19:59;;;;;;;16.97;9.13;;;;;;;20.45;72.84;99491.00;5092547;28;20226;-71
2023/10/22 06:22:26;;;;;;;14.53;7.30;;;;;;;20.46;73.21;99490.75;5093081;28;20199;-72
2023/10/22 06:24:53;;;;;;;10.87;8.70;;;;;;;20.72;71.86;99480.94;5093395;28;20258;-72
2023/10/22 06:27:19;;;;;;;15.37;8.17;;;;;;;20.29;73.11;99462.28;5090504;28;20322;-72
2023/10/22 06:29:48;;;;;;;16.90;9.50;;;;;;;19.42;76.40;99455.56;5093002;28;20252;-72
2023/10/22 06:32:15;;;;;;;15.20;9.60;;;;;;;19.20;77.94;99454.78;5092808;28;20261;-71
2023/10/22 06:34:43;;;;;;;14.10;9.57;;;;;;;19.45;77.85;99471.25;5093181;28;20191;-72
2023/10/22 06:37:09;;;;;;;11.87;8.60;;;;;;;19.41;77.23;99475.50;5090058;28;20191;-71
2023/10/22 06:39:36;;;;;;;19.07;10.93;;;;;;;19.11;78.42;99477.84;5092752;28;20620;-70
2023/10/22 06:42:03;;;;;;;15.53;9.27;;;;;;;19.10;79.35;99468.09;5092972;28;20195;-71
2023/10/22 06:44:30;;;;;;;15.00;9.93;;;;;;;19.24;79.69;99455.94;5090378;28;20565;-70
2023/10/22 06:46:57;;;;;;;13.87;9.93;;;;;;;19.27;79.63;99482.34;5092559;28;20245;-69
2023/10/22 06:49:23;;;;;;;18.97;9.23;;;;;;;19.85;78.11;99479.72;5092893;28;20670;-74
2023/10/22 06:51:51;;;;;;;20.60;9.37;;;;;;;20.33;75.80;99461.53;5085246;28;20303;-71
2023/10/22 06:54:18;;;;;;;12.93;9.60;;;;;;;20.40;75.82;99493.69;5087640;28;20204;-69
2023/10/22 06:56:45;;;;;;;16.63;10.13;;;;;;;20.70;74.61;99506.56;5093008;28;20195;-73
2023/10/22 06:59:11;;;;;;;17.03;8.13;;;;;;;21.03;72.98;99492.72;5093006;28;20264;-72
2023/10/22 07:01:38;;;;;;;21.50;9.00;;;;;;;21.26;72.98;99527.38;5092556;28;20291;-70
2023/10/22 07:04:05;;;;;;;12.67;8.60;;;;;;;21.47;72.13;99538.03;5092523;28;20688;-72
2023/10/22 07:06:32;;;;;;;12.27;8.93;;;;;;;21.60;71.42;99486.16;5092642;28;20191;-73
2023/10/22 07:09:00;;;;;;;11.43;8.57;;;;;;;21.23;73.27;99509.81;5092684;28;20260;-71
2023/10/22 07:11:26;;;;;;;21.57;9.80;;;;;;;21.39;73.53;99508.00;5092562;28;20203;-71
2023/10/22 07:13:53;;;;;;;12.97;10.13;;;;;;;21.27;73.81;99492.00;5091894;28;20625;-71
2023/10/22 07:16:20;;;;;;;23.90;9.97;;;;;;;21.53;73.28;99534.28;5092423;28;20195;-71
2023/10/22 07:18:46;;;;;;;14.73;9.40;;;;;;;21.70;73.10;99525.91;5092483;28;20245;-71
2023/10/22 07:21:13;;;;;;;15.77;9.97;;;;;;;21.88;72.90;99507.31;5092103;28;20188;-71
2023/10/22 07:23:40;;;;;;;12.17;8.60;;;;;;;22.19;71.20;99524.41;5092063;28;20203;-71
2023/10/22 07:26:08;;;;;;;21.93;10.13;;;;;;;22.18;71.56;99509.25;5092566;28;20649;-71
2023/10/22 07:28:34;;;;;;;13.90;9.27;;;;;;;22.34;70.55;99503.53;5092005;28;20747;-71
2023/10/22 07:31:01;;;;;;;11.53;8.00;;;;;;;22.68;69.77;99514.63;5091976;28;20363;-71
2023/10/22 07:33:28;;;;;;;12.17;7.67;;;;;;;23.18;67.84;99506.38;5091529;28;20278;-72
2023/10/22 07:35:55;;;;;;;13.50;8.63;;;;;;;23.47;66.62;99516.31;5092748;28;20199;-72
2023/10/22 07:38:22;;;;;;;17.17;8.50;;;;;;;23.79;65.68;99541.06;5091789;28;20223;-71
2023/10/22 07:40:50;;;;;;;13.23;9.00;;;;;;;23.97;64.66;99520.66;5092343;28;20197;-71
2023/10/22 07:43:19;;;;;;;14.47;8.73;;;;;;;23.87;64.62;99507.94;5092167;28;20204;-71
2023/10/22 07:45:46;;;;;;;10.90;7.60;;;;;;;23.98;65.03;99509.47;5092206;28;20576;-72
2023/10/22 07:48:13;;;;;;;11.87;7.63;;;;;;;24.21;63.42;99527.78;5091469;28;20196;-72
2023/10/22 07:50:40;;;;;;;12.43;7.53;;;;;;;24.28;64.23;99528.28;5092069;28;20243;-72
2023/10/22 07:53:06;;;;;;;8.53;7.67;;;;;;;24.57;63.19;99526.38;5091381;28;20292;-72
2023/10/22 07:55:34;;;;;;;12.03;7.73;;;;;;;24.78;61.65;99527.00;5091844;28;20204;-72
2023/10/22 07:58:01;;;;;;;12.03;7.40;;;;;;;24.91;61.19;99540.75;5091794;28;20226;-73
2023/10/22 08:00:29;;;;;;;17.87;7.00;;;;;;;24.93;61.42;99535.00;5091914;28;20244;-70
2023/10/22 08:02:56;;;;;;;12.33;7.10;;;;;;;25.10;61.14;99534.56;5091354;28;20666;-73
2023/10/22 08:05:23;;;;;;;11.73;6.00;;;;;;;25.18;60.48;99547.53;5092121;28;20190;-72
2023/10/22 08:07:50;;;;;;;11.53;7.90;;;;;;;25.02;60.53;99530.56;5091628;28;20198;-73
2023/10/22 08:10:17;;;;;;;12.87;6.87;;;;;;;25.04;61.80;99539.25;5091785;28;20247;-73
2023/10/22 08:12:43;;;;;;;12.10;6.97;;;;;;;25.40;61.51;99526.91;5091580;28;20222;-72
2023/10/22 08:15:11;;;;;;;11.80;6.63;;;;;;;25.38;60.74;99530.97;5091683;28;20274;-73
2023/10/22 08:17:39;;;;;;;14.13;8.03;;;;;;;25.44;60.18;99529.81;5091657;28;20609;-72
2023/10/22 08:20:07;;;;;;;18.13;8.17;;;;;;;25.45;59.81;99520.56;5090732;28;20268;-70
2023/10/22 08:22:33;;;;;;;16.10;8.90;;;;;;;25.47;59.00;99519.16;5090025;28;20198;-72
2023/10/22 08:25:00;;;;;;;20.13;7.50;;;;;;;25.49;59.27;99521.59;5090012;28;20186;-70
2023/10/22 08:27:27;;;;;;;10.47;7.00;;;;;;;25.56;58.73;99516.63;5090831;28;20276;-72
2023/10/22 08:29:54;;;;;;;11.33;7.17;;;;;;;25.34;58.83;99533.47;5090678;28;20491;-72
2023/10/22 08:32:21;;;;;;;12.33;7.07;;;;;;;25.33;59.89;99533.75;5090646;28;20219;-71
2023/10/22 08:34:49;;;;;;;8.33;7.23;;;;;;;24.84;60.70;99518.50;5091430;28;20191;-71
2023/10/22 08:37:16;;;;;;;16.83;6.90;;;;;;;24.92;62.46;99512.44;5091684;28;20260;-72
2023/10/22 08:39:43;;;;;;;9.17;7.13;;;;;;;25.00;61.58;99514.53;5090999;28;20195;-72
2023/10/22 08:42:16;;;;;;;11.40;7.00;;;;;;;24.78;61.68;99511.53;5091009;28;20196;-74
2023/10/22 08:44:46;;;;;;;10.30;7.40;;;;;;;24.75;61.54;99503.94;5094971;28;20198;-73
2023/10/22 08:47:13;;;;;;;11.93;6.67;;;;;;;24.56;62.18;99497.59;5095259;28;20198;-75
2023/10/22 08:49:39;;;;;;;10.23;6.97;;;;;;;24.32;63.15;99499.47;5095425;28;20194;-75
2023/10/22 08:52:08;;;;;;;11.67;7.17;;;;;;;24.01;64.20;99500.78;5095460;28;20208;-75
2023/10/22 08:54:36;;;;;;;8.00;6.93;;;;;;;23.91;65.25;99498.16;5094981;28;20225;-76
2023/10/22 08:57:03;;;;;;;7.13;6.10;;;;;;;24.04;65.26;99494.81;5095772;28;20194;-76
2023/10/22 08:59:30;;;;;;;13.67;8.53;;;;;;;23.99;64.37;99500.28;5095267;28;20192;-74
2023/10/22 09:01:57;;;;;;;8.80;7.10;;;;;;;23.91;65.01;99495.44;5094475;28;20246;-75
2023/10/22 09:04:25;;;;;;;14.90;7.63;;;;;;;23.42;66.71;99491.09;5094806;28;20189;-75
2023/10/22 09:06:53;;;;;;;14.97;8.10;;;;;;;22.97;68.99;99472.31;5092124;28;20619;-72
2023/10/22 09:09:33;;;;;;;12.40;7.87;;;;;;;22.54;70.83;99460.25;5094307;28;20635;-74
2023/10/22 09:12:00;;;;;;;8.43;7.23;;;;;;;22.77;70.75;99456.13;5093304;28;20603;-75
2023/10/22 09:14:27;;;;;;;15.30;7.80;;;;;;;22.95;69.92;99448.19;5094331;28;20216;-72
2023/10/22 09:16:54;;;;;;;12.57;7.33;;;;;;;23.01;69.78;99454.41;5094451;28;20187;-75
2023/10/22 09:19:37;;;;;;;13.03;8.27;;;;;;;22.98;69.89;99453.06;5094304;28;20193;-74
2023/10/22 09:22:04;;;;;;;14.17;8.87;;;;;;;22.84;70.33;99437.69;5093956;28;20212;-76
2023/10/22 09:24:35;;;;;;;11.80;8.20;;;;;;;22.68;71.04;99436.94;5094476;28;20228;-75
2023/10/22 09:27:02;;;;;;;12.53;8.07;;;;;;;22.59;71.20;99438.59;5094535;28;20215;-75
2023/10/22 09:29:31;;;;;;;16.90;8.97;;;;;;;22.45;72.56;99415.00;5093645;28;20184;-75
2023/10/22 09:31:59;;;;;;;16.93;9.33;;;;;;;22.63;72.55;99407.16;5094172;28;20245;-72
2023/10/22 09:34:27;;;;;;;21.80;13.50;;;;;;;22.82;74.01;99410.88;5093416;28;20809;-73
2023/10/22 09:36:54;;;;;;;17.87;10.33;;;;;;;23.07;71.36;99423.50;5093971;28;20253;-75
2023/10/22 09:39:38;;;;;;;17.13;11.10;;;;;;;23.21;70.81;99422.66;5093449;28;20268;-75
2023/10/22 09:42:06;;;;;;;16.20;10.93;;;;;;;23.36;72.17;99417.13;5094091;28;20188;-76
2023/10/22 09:44:33;;;;;;;14.20;8.50;;;;;;;23.67;73.21;99432.09;5093934;28;20254;-76
2023/10/22 09:47:01;;;;;;;10.07;8.27;;;;;;;23.97;69.17;99433.81;5094333;28;20250;-74
2023/10/22 09:49:30;;;;;;;16.13;7.60;;;;;;;24.23;68.44;99433.31;5093768;28;20224;-72
2023/10/22 09:51:59;;;;;;;12.60;7.57;;;;;;;24.51;67.60;99429.72;5093959;28;20287;-73
2023/10/22 09:54:35;;;;;;;12.13;8.63;;;;;;;24.69;64.43;99436.38;5090310;28;20250;-74
2023/10/22 09:57:08;;;;;;;14.47;7.63;;;;;;;24.77;65.00;99433.84;5093692;28;20654;-73
2023/10/22 09:59:35;;;;;;;10.03;7.27;;;;;;;24.63;65.22;99424.75;5093899;28;20183;-75
2023/10/22 10:02:04;;;;;;;14.20;8.20;;;;;;;24.74;64.19;99420.81;5093845;28;20195;-74
2023/10/22 10:04:33;;;;;;;22.00;7.87;;;;;;;24.77;64.11;99417.53;5093742;28;20608;-73
2023/10/22 10:07:03;;;;;;;17.40;8.20;;;;;;;24.71;63.89;99415.16;5094018;28;20219;-74
2023/10/22 10:09:30;;;;;;;11.27;7.07;;;;;;;24.67;64.43;99417.63;5093925;28;20270;-73
2023/10/22 10:11:58;;;;;;;11.87;7.17;;;;;;;24.53;64.25;99427.56;5093595;28;20669;-74
2023/10/22 10:14:45;;;;;;;8.67;7.03;;;;;;;24.02;65.27;99412.84;5091199;28;20213;-74
2023/10/22 10:17:13;;;;;;;15.10;8.27;;;;;;;24.15;65.25;99427.66;5088624;28;20182;-73
2023/10/22 10:19:40;;;;;;;16.90;8.60;;;;;;;24.30;64.70;99417.47;5092100;28;20190;-72
2023/10/22 10:22:07;;;;;;;11.63;7.70;;;;;;;24.47;64.90;99420.53;5093131;28;20723;-72
2023/10/22 10:24:34;;;;;;;9.07;7.27;;;;;;;24.66;65.15;99423.34;5093340;28;20202;-72
2023/10/22 10:27:26;;;;;;;19.43;8.33;;;;;;;24.82;63.51;99403.88;5093612;28;20238;-72
2023/10/22 10:30:20;;;;;;;15.00;7.97;;;;;;;24.96;63.67;99406.69;5093347;28;20199;-72
2023/10/22 10:32:49;;;;;;;13.60;8.40;;;;;;;24.76;62.21;99391.47;5093565;28;20221;-72
2023/10/22 10:35:16;;;;;;;13.20;8.20;;;;;;;24.30;64.35;99389.53;5093124;28;20199;-72
2023/10/22 10:38:16;;;;;;;13.03;7.47;;;;;;;24.58;65.33;99386.75;5093537;28;20484;-72
2023/10/22 10:40:44;;;;;;;8.87;8.03;;;;;;;24.56;64.04;99364.50;5093096;28;20199;-72
2023/10/22 10:43:11;;;;;;;16.63;8.07;;;;;;;24.18;64.94;99361.94;5092934;28;20248;-72
2023/10/22 10:45:41;;;;;;;16.80;9.07;;;;;;;24.37;65.04;99374.50;5093064;28;20685;-72
2023/10/22 10:48:28;;;;;;;11.83;8.30;;;;;;;24.36;64.24;99367.44;5093012;28;20386;-72
2023/10/22 10:51:19;;;;;;;11.70;8.03;;;;;;;24.58;64.66;99356.88;5093097;28;20255;-72
2023/10/22 10:54:18;;;;;;;12.00;6.67;;;;;;;24.88;63.52;99348.34;5093163;28;20214;-72
2023/10/22 10:56:49;;;;;;;16.80;7.83;;;;;;;25.11;63.09;99348.59;5093160;28;20199;-73
2023/10/22 10:59:26;;;;;;;13.53;8.10;;;;;;;25.29;61.91;99350.53;5093295;28;20195;-72
2023/10/22 11:02:06;;;;;;;12.20;7.20;;;;;;;25.41;61.44;99340.00;5093293;28;20268;-71
2023/10/22 11:04:34;;;;;;;10.50;7.83;;;;;;;25.30;60.81;99341.25;5093126;28;20662;-72
2023/10/22 11:07:02;;;;;;;10.33;7.13;;;;;;;25.32;61.00;99333.63;5091551;28;20252;-73
2023/10/22 11:09:29;;;;;;;8.60;7.00;;;;;;;25.29;61.99;99331.50;5093512;28;20243;-72
2023/10/22 11:11:58;;;;;;;12.27;6.83;;;;;;;25.42;60.93;99331.56;5092765;28;20199;-73
2023/10/22 11:14:24;;;;;;;8.07;6.90;;;;;;;25.58;60.77;99324.75;5092636;28;20219;-72
2023/10/22 11:16:53;;;;;;;12.93;7.40;;;;;;;25.70;59.88;99333.25;5092298;28;20672;-72
2023/10/22 11:19:23;;;;;;;10.73;7.23;;;;;;;25.56;59.79;99337.06;5092762;28;20222;-72
2023/10/22 11:21:50;;;;;;;12.67;6.60;;;;;;;25.68;59.64;99329.22;5092451;28;20248;-72
2023/10/22 11:24:17;;;;;;;12.00;6.37;;;;;;;25.80;58.59;99337.72;5092549;28;20199;-72
2023/10/22 11:26:45;;;;;;;10.43;6.57;;;;;;;25.69;58.77;99328.94;5092122;28;20770;-73
2023/10/22 11:29:12;;;;;;;9.23;7.13;;;;;;;25.60;59.23;99313.59;5092270;28;20499;-72
2023/10/22 11:31:38;;;;;;;11.53;6.67;;;;;;;25.80;59.15;99319.47;5092538;28;20227;-73